Observation data for Abernathy on 12/06/2018      Previous  Date       Current Mesonet Observations  Soil Data  Daily Summary Page  Observations in Plain Language
KARS 060600Z 21009KT 06/05 A3008 RMK A01 T00620045  RH  090%=      5-min Rain = 0
KARS 060605Z 21009KT 06/05 A3008 RMK A01 T00630045  RH  090%=      5-min Rain = 0
KARS 060610Z 21010KT 06/05 A3008 RMK A01 T00630045  RH  090%=      5-min Rain = 0
KARS 060615Z 21009KT 06/05 A3008 RMK A01 T00630045  RH  090%=      5-min Rain = 0
KARS 060620Z 21009KT 06/05 A3008 RMK A01 T00630045  RH  090%=      5-min Rain = 0
KARS 060625Z 21009KT 06/05 A3008 RMK A01 T00640046  RH  090%=      5-min Rain = 0
KARS 060630Z 21009KT 06/05 A3008 RMK A01 T00630045  RH  090%=      5-min Rain = 0
KARS 060635Z 21010KT 06/05 A3007 RMK A01 T00630045  RH  090%=      5-min Rain = 0
KARS 060640Z 21010KT 06/05 A3007 RMK A01 T00630045  RH  090%=      5-min Rain = 0
KARS 060645Z 21010KT 06/05 A3007 RMK A01 T00620045  RH  091%=      5-min Rain = 0
KARS 060650Z 21009KT 06/05 A3007 RMK A01 T00610045  RH  091%=      5-min Rain = 0
KARS 060655Z 21010KT 06/04 A3007 RMK A01 T00610044  RH  091%=      5-min Rain = 0
KARS 060700Z 21010KT 06/04 A3007 RMK A01 T00600044  RH  091%=      5-min Rain = 0
KARS 060705Z 21010KT 06/04 A3007 RMK A01 T00600044  RH  092%=      5-min Rain = 0
KARS 060710Z 21010KT 06/04 A3007 RMK A01 T00590044  RH  092%=      5-min Rain = 0
KARS 060715Z 21009KT 06/04 A3006 RMK A01 T00580044  RH  092%=      5-min Rain = 0
KARS 060720Z 21009KT 06/04 A3006 RMK A01 T00580044  RH  092%=      5-min Rain = 0
KARS 060725Z 21009KT 06/04 A3006 RMK A01 T00570043  RH  093%=      5-min Rain = 0
KARS 060730Z 21008KT 06/04 A3006 RMK A01 T00570043  RH  093%=      5-min Rain = 0
KARS 060735Z 21008KT 06/04 A3006 RMK A01 T00560043  RH  093%=      5-min Rain = 0
KARS 060740Z 21008KT 06/04 A3006 RMK A01 T00560043  RH  093%=      5-min Rain = 0
KARS 060745Z 21008KT 06/04 A3006 RMK A01 T00560043  RH  093%=      5-min Rain = 0
KARS 060750Z 21007KT 06/04 A3006 RMK A01 T00560043  RH  094%=      5-min Rain = 0
KARS 060755Z 22008KT 06/04 A3006 RMK A01 T00550043  RH  094%=      5-min Rain = 0
KARS 060800Z 22007KT 06/04 A3006 RMK A01 T00550043  RH  094%=      5-min Rain = 0
KARS 060805Z 22008KT 06/04 A3006 RMK A01 T00550043  RH  094%=      5-min Rain = 0
KARS 060810Z 21009KT 06/04 A3006 RMK A01 T00550043  RH  094%=      5-min Rain = 0
KARS 060815Z 21009KT 05/04 A3006 RMK A01 T00540042  RH  094%=      5-min Rain = 0
KARS 060820Z 21008KT 05/04 A3006 RMK A01 T00530042  RH  094%=      5-min Rain = 0
KARS 060825Z 21008KT 05/04 A3007 RMK A01 T00520041  RH  094%=      5-min Rain = 0
KARS 060830Z 21008KT 05/04 A3007 RMK A01 T00520041  RH  095%=      5-min Rain = 0
KARS 060835Z 22008KT 05/04 A3007 RMK A01 T00510041  RH  095%=      5-min Rain = 0
KARS 060840Z 21008KT 05/04 A3007 RMK A01 T00510041  RH  095%=      5-min Rain = 0
KARS 060845Z 21007KT 05/04 A3007 RMK A01 T00510041  RH  095%=      5-min Rain = 0
KARS 060850Z 22006KT 05/04 A3007 RMK A01 T00500041  RH  095%=      5-min Rain = 0
KARS 060855Z 23006KT 05/04 A3007 RMK A01 T00500041  RH  096%=      5-min Rain = 0
KARS 060900Z 22006KT 05/04 A3007 RMK A01 T00500040  RH  096%=      5-min Rain = 0
KARS 060905Z 22006KT 05/04 A3007 RMK A01 T00480039  RH  096%=      5-min Rain = 0
KARS 060910Z 22006KT 05/04 A3007 RMK A01 T00470038  RH  096%=      5-min Rain = 0
KARS 060915Z 22007KT 05/04 A3007 RMK A01 T00460038  RH  096%=      5-min Rain = 0
KARS 060920Z 22007KT 05/04 A3007 RMK A01 T00450037  RH  096%=      5-min Rain = 0
KARS 060925Z 21007KT 04/04 A3006 RMK A01 T00440037  RH  097%=      5-min Rain = 0
KARS 060930Z 22005KT 04/04 A3006 RMK A01 T00430035  RH  097%=      5-min Rain = 0
KARS 060935Z 22006KT 04/03 A3006 RMK A01 T00410034  RH  097%=      5-min Rain = 0
KARS 060940Z 22006KT 04/03 A3005 RMK A01 T00400033  RH  097%=      5-min Rain = 0
KARS 060945Z 21007KT 04/03 A3005 RMK A01 T00380032  RH  097%=      5-min Rain = 0
KARS 060950Z 22007KT 04/03 A3005 RMK A01 T00380032  RH  098%=      5-min Rain = 0
KARS 060955Z 22007KT 04/03 A3006 RMK A01 T00390034  RH  098%=      5-min Rain = 0
KARS 061000Z 22007KT 04/04 A3006 RMK A01 T00420037  RH  098%=      5-min Rain = 0
KARS 061005Z 22007KT 04/04 A3006 RMK A01 T00430038  RH  098%=      5-min Rain = 0
KARS 061010Z 23005KT 04/04 A3006 RMK A01 T00440039  RH  098%=      5-min Rain = 0
KARS 061015Z 22006KT 04/04 A3006 RMK A01 T00440038  RH  098%=      5-min Rain = 0
KARS 061020Z 22006KT 04/04 A3006 RMK A01 T00440038  RH  098%=      5-min Rain = 0
KARS 061025Z 22006KT 04/04 A3006 RMK A01 T00440038  RH  098%=      5-min Rain = 0
KARS 061030Z 22006KT 05/04 A3006 RMK A01 T00450040  RH  098%=      5-min Rain = 0
KARS 061035Z 22006KT 05/04 A3007 RMK A01 T00460040  RH  098%=      5-min Rain = 0
KARS 061040Z 23006KT 05/04 A3007 RMK A01 T00460040  RH  098%=      5-min Rain = 0
KARS 061045Z 22006KT 05/04 A3007 RMK A01 T00470041  RH  098%=      5-min Rain = 0
KARS 061050Z 22006KT 05/04 A3007 RMK A01 T00470041  RH  098%=      5-min Rain = 0
KARS 061055Z 23004KT 05/04 A3007 RMK A01 T00470041  RH  097%=      5-min Rain = 0
KARS 061100Z 24004KT 05/04 A3007 RMK A01 T00470041  RH  097%=      5-min Rain = 0
KARS 061105Z 24004KT 05/04 A3007 RMK A01 T00480041  RH  097%=      5-min Rain = 0
KARS 061110Z 25004KT 05/04 A3007 RMK A01 T00480041  RH  097%=      5-min Rain = 0
KARS 061115Z 25005KT 05/04 A3007 RMK A01 T00480041  RH  097%=      5-min Rain = 0
KARS 061120Z 25005KT 05/04 A3007 RMK A01 T00480041  RH  097%=      5-min Rain = 0
KARS 061125Z 25005KT 05/04 A3007 RMK A01 T00470040  RH  097%=      5-min Rain = 0
KARS 061130Z 27006KT 05/04 A3009 RMK A01 T00470041  RH  097%=      5-min Rain = 0
KARS 061135Z 29007KT 05/04 A3009 RMK A01 T00480041  RH  097%=      5-min Rain = 0
KARS 061140Z 31007KT 05/04 A301 RMK A01 T00470039  RH  097%=      5-min Rain = 0
KARS 061145Z 31006KT 05/04 A301 RMK A01 T00460039  RH  097%=      5-min Rain = 0
KARS 061150Z 32006KT 05/04 A301 RMK A01 T00450038  RH  097%=      5-min Rain = 0
KARS 061155Z 30005KT 04/04 A301 RMK A01 T00440036  RH  097%=      5-min Rain = 0
KARS 061200Z 30005KT 04/04 A3011 RMK A01 T00420035  RH  097%=      5-min Rain = 0
KARS 061205Z 31005KT 04/03 A3011 RMK A01 T00400033  RH  097%=      5-min Rain = 0
KARS 061210Z 32006KT 04/03 A3011 RMK A01 T00390032  RH  097%=      5-min Rain = 0
KARS 061215Z 32006KT 04/03 A3011 RMK A01 T00390032  RH  097%=      5-min Rain = 0
KARS 061220Z 33007KT 04/03 A3011 RMK A01 T00380031  RH  097%=      5-min Rain = 0
KARS 061225Z 33007KT 04/03 A3011 RMK A01 T00370031  RH  097%=      5-min Rain = 0
KARS 061230Z 33007KT 04/03 A3011 RMK A01 T00360029  RH  097%=      5-min Rain = 0
KARS 061235Z 33008KT 03/03 A3012 RMK A01 T00340028  RH  097%=      5-min Rain = 0
KARS 061240Z 34010KT 03/03 A3012 RMK A01 T00330026  RH  097%=      5-min Rain = 0
KARS 061245Z 34013G18KT 03/02 A3013 RMK A01 T00310023  RH  096%=      5-min Rain = 0
KARS 061250Z 35014KT 03/02 A3013 RMK A01 T00290017  RH  093%=      5-min Rain = 0
KARS 061255Z 35013G18KT 03/01 A3013 RMK A01 T00260014  RH  093%=      5-min Rain = 0
KARS 061300Z 36017G23KT 02/00 A3013 RMK A01 T001800-0  RH  089%=      5-min Rain = 0
KARS 061305Z 00016G21KT 01/M01 A3014 RMK A01 T00091011  RH  087%=      5-min Rain = 0
KARS 061310Z 36014KT 01/M01 A3014 RMK A01 T00051013  RH  089%=      5-min Rain = 0
KARS 061315Z 36015KT 00/M02 A3015 RMK A01 T00011018  RH  088%=      5-min Rain = 0
KARS 061320Z 36014KT M00/M02 A3015 RMK A01 T10031021  RH  088%=      5-min Rain = 0
KARS 061325Z 36015KT M01/M02 A3015 RMK A01 T10051024  RH  088%=      5-min Rain = 0
KARS 061330Z 36016KT M01/M03 A3015 RMK A01 T10061026  RH  087%=      5-min Rain = 0
KARS 061335Z 36016G22KT M01/M03 A3015 RMK A01 T10071027  RH  087%=      5-min Rain = 0
KARS 061340Z 00015KT M01/M03 A3015 RMK A01 T10081028  RH  087%=      5-min Rain = 0
KARS 061345Z 00015G21KT M01/M03 A3016 RMK A01 T10091029  RH  087%=      5-min Rain = 0
KARS 061350Z 00016KT M01/M03 A3016 RMK A01 T10091030  RH  086%=      5-min Rain = 0
KARS 061355Z 01016G21KT M01/M03 A3016 RMK A01 T10101031  RH  086%=      5-min Rain = 0
KARS 061400Z 00016KT M01/M03 A3017 RMK A01 T10101032  RH  086%=      5-min Rain = 0
KARS 061405Z 00014G19KT M01/M03 A3017 RMK A01 T10101032  RH  086%=      5-min Rain = 0
KARS 061410Z 00016G22KT M01/M03 A3018 RMK A01 T10111033  RH  085%=      5-min Rain = 0
KARS 061415Z 01017G22KT M01/M04 A3017 RMK A01 T10111036  RH  084%=      5-min Rain = 0
KARS 061420Z 01018KT M01/M04 A3018 RMK A01 T10131041  RH  082%=      5-min Rain = 0
KARS 061425Z 01019KT M01/M04 A3018 RMK A01 T10131042  RH  081%=      5-min Rain = 0
KARS 061430Z 01019G25KT M01/M04 A3018 RMK A01 T10131044  RH  080%=      5-min Rain = 0
KARS 061435Z 01019G24KT M01/M05 A3018 RMK A01 T10141045  RH  079%=      5-min Rain = 0
KARS 061440Z 01020G25KT M01/M05 A3019 RMK A01 T10141047  RH  078%=      5-min Rain = 0
KARS 061445Z 01020G27KT M01/M05 A3019 RMK A01 T10141048  RH  078%=      5-min Rain = 0
KARS 061450Z 01018G25KT M01/M05 A302 RMK A01 T10141050  RH  077%=      5-min Rain = 0
KARS 061455Z 01020G25KT M02/M05 A302 RMK A01 T10151052  RH  076%=      5-min Rain = 0
KARS 061500Z 01019G25KT M02/M05 A302 RMK A01 T10151052  RH  076%=      5-min Rain = 0
KARS 061505Z 01020G25KT M02/M05 A3021 RMK A01 T10151052  RH  076%=      5-min Rain = 0
KARS 061510Z 01018G23KT M01/M05 A3021 RMK A01 T10141053  RH  075%=      5-min Rain = 0
KARS 061515Z 02017G23KT M01/M05 A3022 RMK A01 T10131052  RH  075%=      5-min Rain = 0
KARS 061520Z 01018KT M01/M05 A3022 RMK A01 T10121052  RH  074%=      5-min Rain = 0
KARS 061525Z 01018KT M01/M05 A3023 RMK A01 T10121053  RH  074%=      5-min Rain = 0
KARS 061530Z 01017G22KT M01/M05 A3024 RMK A01 T10111053  RH  074%=      5-min Rain = 0
KARS 061535Z 01018KT M01/M05 A3024 RMK A01 T10111053  RH  073%=      5-min Rain = 0
KARS 061540Z 01015KT M01/M05 A3024 RMK A01 T10101052  RH  073%=      5-min Rain = 0
KARS 061545Z 01016G21KT M01/M05 A3024 RMK A01 T10081052  RH  073%=      5-min Rain = 0
KARS 061550Z 02017G22KT M01/M05 A3024 RMK A01 T10091052  RH  073%=      5-min Rain = 0
KARS 061555Z 02016KT M01/M05 A3025 RMK A01 T10081052  RH  072%=      5-min Rain = 0
KARS 061600Z 02017KT M01/M05 A3025 RMK A01 T10081052  RH  072%=      5-min Rain = 0
KARS 061605Z 02015KT M01/M05 A3026 RMK A01 T10081051  RH  073%=      5-min Rain = 0
KARS 061610Z 02015G20KT M01/M05 A3026 RMK A01 T10051049  RH  072%=      5-min Rain = 0
KARS 061615Z 02016G21KT M01/M05 A3026 RMK A01 T10051049  RH  072%=      5-min Rain = 0
KARS 061620Z 01017KT M01/M05 A3027 RMK A01 T10061050  RH  072%=      5-min Rain = 0
KARS 061625Z 02017KT M01/M05 A3027 RMK A01 T10061050  RH  073%=      5-min Rain = 0
KARS 061630Z 01018KT M01/M05 A3027 RMK A01 T10071050  RH  073%=      5-min Rain = 0
KARS 061635Z 02014G21KT M01/M05 A3027 RMK A01 T10061048  RH  073%=      5-min Rain = 0
KARS 061640Z 02018G23KT M01/M05 A3027 RMK A01 T10061049  RH  073%=      5-min Rain = 0
KARS 061645Z 02018G23KT M01/M05 A3027 RMK A01 T10071049  RH  074%=      5-min Rain = 0
KARS 061650Z 01018G23KT M01/M05 A3026 RMK A01 T10081049  RH  074%=      5-min Rain = 0
KARS 061655Z 02018G23KT M01/M05 A3026 RMK A01 T10081048  RH  075%=      5-min Rain = 0
KARS 061700Z 02016KT M01/M05 A3026 RMK A01 T10061047  RH  074%=      5-min Rain = 0
KARS 061705Z 02017G23KT M01/M05 A3027 RMK A01 T10061047  RH  074%=      5-min Rain = 0
KARS 061710Z 02018KT M01/M05 A3027 RMK A01 T10061047  RH  074%=      5-min Rain = 0
KARS 061715Z 02017G22KT M01/M05 A3027 RMK A01 T10051046  RH  074%=      5-min Rain = 0
KARS 061720Z 02015G20KT M00/M04 A3027 RMK A01 T10031044  RH  074%=      5-min Rain = 0
KARS 061725Z 02017KT M00/M04 A3027 RMK A01 T10011044  RH  073%=      5-min Rain = 0
KARS 061730Z 02016KT M00/M04 A3027 RMK A01 T10021044  RH  074%=      5-min Rain = 0
KARS 061735Z 03015G20KT 00/04 A3026 RMK A01 T00-00-42  RH  074%=      5-min Rain = 0
KARS 061740Z 02015G20KT 00/M04 A3027 RMK A01 T00031041  RH  073%=      5-min Rain = 0
KARS 061745Z 03015KT 01/M04 A3026 RMK A01 T00051039  RH  073%=      5-min Rain = 0
KARS 061750Z 02016KT 01/M04 A3026 RMK A01 T00081038  RH  072%=      5-min Rain = 0
KARS 061755Z 03016KT 01/M04 A3026 RMK A01 T00071038  RH  072%=      5-min Rain = 0
KARS 061800Z 03015KT 01/M04 A3026 RMK A01 T00081037  RH  073%=      5-min Rain = 0
KARS 061805Z 02014G20KT 01/M04 A3026 RMK A01 T00111035  RH  072%=      5-min Rain = 0
KARS 061810Z 03014KT 01/M03 A3026 RMK A01 T00131034  RH  071%=      5-min Rain = 0
KARS 061815Z 03015G20KT 02/M03 A3026 RMK A01 T00151034  RH  071%=      5-min Rain = 0
KARS 061820Z 03014KT 02/M03 A3026 RMK A01 T00151034  RH  071%=      5-min Rain = 0
KARS 061825Z 03014G19KT 02/M03 A3025 RMK A01 T00181032  RH  070%=      5-min Rain = 0
KARS 061830Z 03015KT 02/M03 A3024 RMK A01 T00191031  RH  070%=      5-min Rain = 0
KARS 061835Z 02014G19KT 02/M03 A3024 RMK A01 T00211030  RH  069%=      5-min Rain = 0
KARS 061840Z 02015KT 02/M03 A3024 RMK A01 T00241029  RH  069%=      5-min Rain = 0
KARS 061845Z 03015G20KT 03/M03 A3024 RMK A01 T00251028  RH  068%=      5-min Rain = 0
KARS 061850Z 03015KT 02/M03 A3025 RMK A01 T00231028  RH  070%=      5-min Rain = 0
KARS 061855Z 03014KT 02/M03 A3024 RMK A01 T00231026  RH  070%=      5-min Rain = 0
KARS 061900Z 03015KT 02/M03 A3024 RMK A01 T00241026  RH  070%=      5-min Rain = 0
KARS 061905Z 03016KT 02/M03 A3023 RMK A01 T00241025  RH  070%=      5-min Rain = 0
KARS 061910Z 03013KT 02/M02 A3023 RMK A01 T00231024  RH  071%=      5-min Rain = 0
KARS 061915Z 03014G21KT 02/M03 A3023 RMK A01 T00231025  RH  072%=      5-min Rain = 0
KARS 061920Z 03014G19KT 02/M02 A3023 RMK A01 T00221024  RH  072%=      5-min Rain = 0
KARS 061925Z 02013KT 02/M02 A3023 RMK A01 T00231024  RH  072%=      5-min Rain = 0
KARS 061930Z 03013G19KT 02/M02 A3023 RMK A01 T00221024  RH  072%=      5-min Rain = 0
KARS 061935Z 03014KT 02/M02 A3023 RMK A01 T00211024  RH  073%=      5-min Rain = 0
KARS 061940Z 03013KT 02/M02 A3023 RMK A01 T00221023  RH  072%=      5-min Rain = 0
KARS 061945Z 03013G18KT 02/M02 A3023 RMK A01 T00211023  RH  073%=      5-min Rain = 0
KARS 061950Z 03013G18KT 02/M02 A3023 RMK A01 T00231022  RH  072%=      5-min Rain = 0
KARS 061955Z 03014KT 02/M02 A3022 RMK A01 T00241022  RH  072%=      5-min Rain = 0
KARS 062000Z 03013KT 03/M02 A3022 RMK A01 T00251021  RH  072%=      5-min Rain = 0
KARS 062005Z 03014KT 03/M02 A3022 RMK A01 T00261021  RH  072%=      5-min Rain = 0
KARS 062010Z 03015G20KT 03/M02 A3021 RMK A01 T00271019  RH  072%=      5-min Rain = 0
KARS 062015Z 03015G21KT 03/M02 A3021 RMK A01 T00281018  RH  073%=      5-min Rain = 0
KARS 062020Z 03016KT 03/M02 A3021 RMK A01 T00281018  RH  073%=      5-min Rain = 0
KARS 062025Z 03015KT 03/M02 A3021 RMK A01 T00261017  RH  074%=      5-min Rain = 0
KARS 062030Z 03016KT 03/M02 A3021 RMK A01 T00271017  RH  074%=      5-min Rain = 0
KARS 062035Z 03015G21KT 03/M02 A3021 RMK A01 T00271015  RH  075%=      5-min Rain = 0
KARS 062040Z 04015KT 03/M01 A3021 RMK A01 T00271014  RH  075%=      5-min Rain = 0
KARS 062045Z 04014KT 03/M01 A3021 RMK A01 T00281013  RH  075%=      5-min Rain = 0
KARS 062050Z 03013KT 03/M01 A3021 RMK A01 T00281013  RH  075%=      5-min Rain = 0
KARS 062055Z 03015KT 03/M01 A3021 RMK A01 T00301014  RH  074%=      5-min Rain = 0
KARS 062100Z 03014KT 03/M01 A3021 RMK A01 T00301013  RH  074%=      5-min Rain = 0
KARS 062105Z 03014G19KT 03/M01 A3021 RMK A01 T00301014  RH  074%=      5-min Rain = 0
KARS 062110Z 03013G19KT 03/M01 A3021 RMK A01 T00301013  RH  074%=      5-min Rain = 0
KARS 062115Z 03015G20KT 03/M01 A3021 RMK A01 T00271014  RH  075%=      5-min Rain = 0
KARS 062120Z 02015KT 03/M01 A3021 RMK A01 T00271014  RH  075%=      5-min Rain = 0
KARS 062125Z 03012KT 03/M02 A3021 RMK A01 T00271015  RH  075%=      5-min Rain = 0
KARS 062130Z 03014G19KT 03/M01 A3021 RMK A01 T00271014  RH  075%=      5-min Rain = 0
KARS 062135Z 03014KT 03/M02 A3021 RMK A01 T00271016  RH  074%=      5-min Rain = 0
KARS 062140Z 03013KT 03/M02 A3022 RMK A01 T00271016  RH  074%=      5-min Rain = 0
KARS 062145Z 03015KT 03/M02 A3022 RMK A01 T00271015  RH  075%=      5-min Rain = 0
KARS 062150Z 03014KT 03/M02 A3023 RMK A01 T00251015  RH  076%=      5-min Rain = 0
KARS 062155Z 03013G18KT 02/M02 A3023 RMK A01 T00241017  RH  075%=      5-min Rain = 0
KARS 062200Z 03012G17KT 02/M02 A3023 RMK A01 T00241016  RH  075%=      5-min Rain = 0
KARS 062205Z 03013KT 02/M02 A3023 RMK A01 T00241017  RH  075%=      5-min Rain = 0
KARS 062210Z 03015KT 02/M02 A3023 RMK A01 T00221018  RH  076%=      5-min Rain = 0
KARS 062215Z 03013KT 02/M02 A3023 RMK A01 T00221016  RH  077%=      5-min Rain = 0
KARS 062220Z 03013KT 02/M02 A3023 RMK A01 T00221017  RH  076%=      5-min Rain = 0
KARS 062225Z 03012KT 02/M02 A3023 RMK A01 T00211018  RH  076%=      5-min Rain = 0
KARS 062230Z 02013KT 02/M02 A3023 RMK A01 T00211018  RH  076%=      5-min Rain = 0
KARS 062235Z 02013KT 02/M02 A3023 RMK A01 T00191019  RH  076%=      5-min Rain = 0
KARS 062240Z 03012KT 02/M02 A3024 RMK A01 T00191020  RH  076%=      5-min Rain = 0
KARS 062245Z 03014KT 02/M02 A3024 RMK A01 T00181021  RH  076%=      5-min Rain = 0
KARS 062250Z 03013KT 02/M02 A3024 RMK A01 T00181020  RH  077%=      5-min Rain = 0
KARS 062255Z 03011KT 02/M02 A3025 RMK A01 T00161021  RH  077%=      5-min Rain = 0
KARS 062300Z 03012KT 02/M02 A3025 RMK A01 T00161021  RH  077%=      5-min Rain = 0
KARS 062305Z 02013KT 02/M02 A3025 RMK A01 T00151021  RH  078%=      5-min Rain = 0
KARS 062310Z 03012KT 01/M02 A3025 RMK A01 T00141021  RH  078%=      5-min Rain = 0
KARS 062315Z 03013KT 01/M02 A3024 RMK A01 T00131021  RH  079%=      5-min Rain = 0
KARS 062320Z 03012KT 01/M02 A3025 RMK A01 T00121021  RH  079%=      5-min Rain = 0
KARS 062325Z 03012KT 01/M02 A3025 RMK A01 T00111022  RH  079%=      5-min Rain = 0
KARS 062330Z 03012KT 01/M02 A3025 RMK A01 T00101023  RH  079%=      5-min Rain = 0
KARS 062335Z 03009G14KT 01/M02 A3026 RMK A01 T00091023  RH  080%=      5-min Rain = 0
KARS 062340Z 03008KT 01/M02 A3026 RMK A01 T00081023  RH  081%=      5-min Rain = 0
KARS 062345Z 03009KT 01/M02 A3026 RMK A01 T00081023  RH  081%=      5-min Rain = 0
KARS 062350Z 04008KT 01/M02 A3026 RMK A01 T00071023  RH  081%=      5-min Rain = 0
KARS 062355Z 03009KT 01/M02 A3026 RMK A01 T00071024  RH  080%=      5-min Rain = 0
KARS 070000Z 03009KT 01/M02 A3026 RMK A01 T00071024  RH  080%=      5-min Rain = 0
KARS 070005Z 03010KT 01/M03 A3026 RMK A01 T00081025  RH  080%=      5-min Rain = 0
KARS 070010Z 04010KT 01/M02 A3026 RMK A01 T00081024  RH  080%=      5-min Rain = 0
KARS 070015Z 04009KT 01/M02 A3026 RMK A01 T00081023  RH  080%=      5-min Rain = 0
KARS 070020Z 05009KT 01/M02 A3026 RMK A01 T00081023  RH  080%=      5-min Rain = 0
KARS 070025Z 04010KT 01/M02 A3027 RMK A01 T00071024  RH  080%=      5-min Rain = 0
KARS 070030Z 04009KT 01/M02 A3027 RMK A01 T00071024  RH  080%=      5-min Rain = 0
KARS 070035Z 04009KT 01/M02 A3027 RMK A01 T00071024  RH  080%=      5-min Rain = 0
KARS 070040Z 03009KT 01/M03 A3027 RMK A01 T00071025  RH  080%=      5-min Rain = 0
KARS 070045Z 03008KT 01/M03 A3027 RMK A01 T00071025  RH  080%=      5-min Rain = 0
KARS 070050Z 04008KT 01/M03 A3028 RMK A01 T00071025  RH  080%=      5-min Rain = 0
KARS 070055Z 05009KT 01/M02 A3028 RMK A01 T00071024  RH  080%=      5-min Rain = 0
KARS 070100Z 05009KT 01/M02 A3028 RMK A01 T00071024  RH  081%=      5-min Rain = 0
KARS 070105Z 05009KT 01/M02 A3028 RMK A01 T00071024  RH  081%=      5-min Rain = 0
KARS 070110Z 05009KT 01/M02 A3028 RMK A01 T00071023  RH  081%=      5-min Rain = 0
KARS 070115Z 05008KT 01/M02 A3029 RMK A01 T00071023  RH  081%=      5-min Rain = 0
KARS 070120Z 04009KT 01/M02 A3029 RMK A01 T00061023  RH  082%=      5-min Rain = 0
KARS 070125Z 04008KT 01/M02 A3029 RMK A01 T00061023  RH  082%=      5-min Rain = 0
KARS 070130Z 04009KT 01/M02 A3029 RMK A01 T00061023  RH  081%=      5-min Rain = 0
KARS 070135Z 04009KT 01/M02 A3029 RMK A01 T00061024  RH  081%=      5-min Rain = 0
KARS 070140Z 05008KT 01/M02 A3029 RMK A01 T00061024  RH  081%=      5-min Rain = 0
KARS 070145Z 04007KT 01/M02 A3029 RMK A01 T00061024  RH  081%=      5-min Rain = 0
KARS 070150Z 04007KT 01/M02 A3029 RMK A01 T00061024  RH  081%=      5-min Rain = 0
KARS 070155Z 05007KT 01/M02 A3029 RMK A01 T00061024  RH  081%=      5-min Rain = 0
KARS 070200Z 07007KT 01/M02 A3029 RMK A01 T00061023  RH  082%=      5-min Rain = 0
KARS 070205Z 06007KT 01/M02 A3029 RMK A01 T00051023  RH  082%=      5-min Rain = 0
KARS 070210Z 05007KT 01/M02 A3029 RMK A01 T00051023  RH  082%=      5-min Rain = 0
KARS 070215Z 06007KT 01/M02 A3029 RMK A01 T00051023  RH  082%=      5-min Rain = 0
KARS 070220Z 06007KT 01/M02 A3029 RMK A01 T00051024  RH  082%=      5-min Rain = 0
KARS 070225Z 06008KT 01/M02 A3029 RMK A01 T00051024  RH  082%=      5-min Rain = 0
KARS 070230Z 06007KT 01/M02 A3029 RMK A01 T00051024  RH  082%=      5-min Rain = 0
KARS 070235Z 05007KT 01/M02 A3029 RMK A01 T00051024  RH  082%=      5-min Rain = 0
KARS 070240Z 04008KT 01/M02 A3029 RMK A01 T00051024  RH  082%=      5-min Rain = 0
KARS 070245Z 03007KT 00/M02 A303 RMK A01 T00041024  RH  082%=      5-min Rain = 0
KARS 070250Z 04007KT 00/M02 A3029 RMK A01 T00041024  RH  082%=      5-min Rain = 0
KARS 070255Z 04008KT 00/M02 A3029 RMK A01 T00041024  RH  082%=      5-min Rain = 0
KARS 070300Z 04007KT 00/M02 A3029 RMK A01 T00041024  RH  082%=      5-min Rain = 0
KARS 070305Z 04007KT 00/M02 A3029 RMK A01 T00041024  RH  082%=      5-min Rain = 0
KARS 070310Z 04006KT 00/M02 A3029 RMK A01 T00031024  RH  082%=      5-min Rain = 0
KARS 070315Z 04007KT 00/M02 A3029 RMK A01 T00031024  RH  083%=      5-min Rain = 0
KARS 070320Z 04006KT 00/M02 A3029 RMK A01 T00031024  RH  083%=      5-min Rain = 0
KARS 070325Z 05008KT 00/M03 A3029 RMK A01 T00031025  RH  082%=      5-min Rain = 0
KARS 070330Z 05008KT 00/M03 A3029 RMK A01 T00021025  RH  082%=      5-min Rain = 0
KARS 070335Z 05007KT 00/M03 A3029 RMK A01 T00021025  RH  083%=      5-min Rain = 0
KARS 070340Z 04006KT 00/M03 A3029 RMK A01 T00011025  RH  083%=      5-min Rain = 0
KARS 070345Z 04006KT 00/M03 A3029 RMK A01 T00011025  RH  083%=      5-min Rain = 0
KARS 070350Z 03006KT 00/03 A3029 RMK A01 T00000-26  RH  083%=      5-min Rain = 0
KARS 070355Z 04005KT 00/03 A3029 RMK A01 T00-00-26  RH  084%=      5-min Rain = 0
KARS 070400Z 04005KT M00/M03 A3029 RMK A01 T10011027  RH  084%=      5-min Rain = 0
KARS 070405Z 04005KT M00/M03 A3029 RMK A01 T10021027  RH  084%=      5-min Rain = 0
KARS 070410Z 05005KT M00/M03 A303 RMK A01 T10031028  RH  084%=      5-min Rain = 0
KARS 070415Z 05004KT M00/M03 A303 RMK A01 T10031028  RH  084%=      5-min Rain = 0
KARS 070420Z 05004KT M00/M03 A303 RMK A01 T10031029  RH  084%=      5-min Rain = 0
KARS 070425Z 06004KT M00/M03 A303 RMK A01 T10041029  RH  084%=      5-min Rain = 0
KARS 070430Z 07003KT M00/M03 A303 RMK A01 T10041028  RH  084%=      5-min Rain = 0
KARS 070435Z 07003KT M00/M03 A3031 RMK A01 T10031028  RH  084%=      5-min Rain = 0
KARS 070440Z 07003KT M00/M03 A3031 RMK A01 T10031028  RH  084%=      5-min Rain = 0
KARS 070445Z 06003KT M00/M03 A3031 RMK A01 T10021028  RH  083%=      5-min Rain = 0
KARS 070450Z 06003KT M00/M03 A3031 RMK A01 T10011028  RH  082%=      5-min Rain = 0
KARS 070455Z 05004KT M00/M03 A3031 RMK A01 T10011029  RH  082%=      5-min Rain = 0
KARS 070500Z 06004KT 00/03 A3031 RMK A01 T00-00-30  RH  081%=      5-min Rain = 0
KARS 070505Z 05003KT 00/03 A3031 RMK A01 T00-00-30  RH  081%=      5-min Rain = 0
KARS 070510Z 05003KT 00/03 A3031 RMK A01 T00-00-31  RH  080%=      5-min Rain = 0
KARS 070515Z 05004KT 00/03 A3031 RMK A01 T00-00-31  RH  080%=      5-min Rain = 0
KARS 070520Z 05004KT 00/03 A3031 RMK A01 T00-00-32  RH  080%=      5-min Rain = 0
KARS 070525Z 05004KT M00/M03 A303 RMK A01 T10011032  RH  080%=      5-min Rain = 0
KARS 070530Z 04004KT M00/M03 A303 RMK A01 T10011032  RH  080%=      5-min Rain = 0
KARS 070535Z 04004KT M00/M03 A303 RMK A01 T10011032  RH  080%=      5-min Rain = 0
KARS 070540Z 03005KT M00/M03 A3029 RMK A01 T10011033  RH  080%=      5-min Rain = 0
KARS 070545Z 02005KT M00/M03 A3029 RMK A01 T10021033  RH  080%=      5-min Rain = 0
KARS 070550Z 02006KT M00/M03 A3029 RMK A01 T10041032  RH  082%=      5-min Rain = 0
KARS 070555Z 02006KT M01/M03 A3029 RMK A01 T10061032  RH  083%=      5-min Rain = 0

Page generated in 0.009 seconds.